sensor_id;sensor_type;location;lat;lon;timestamp;temperature;humidity
21459;DHT22;10891;49.350;19.386;2023-02-14T00:02:09;2.70;99.90
21459;DHT22;10891;49.350;19.386;2023-02-14T00:04:38;2.70;99.90
21459;DHT22;10891;49.350;19.386;2023-02-14T00:07:08;2.80;99.90
21459;DHT22;10891;49.350;19.386;2023-02-14T00:09:35;2.70;99.90
21459;DHT22;10891;49.350;19.386;2023-02-14T00:12:03;2.60;99.90
21459;DHT22;10891;49.350;19.386;2023-02-14T00:14:30;2.60;99.90
21459;DHT22;10891;49.350;19.386;2023-02-14T00:17:14;2.60;99.90
21459;DHT22;10891;49.350;19.386;2023-02-14T00:19:42;2.60;99.90
21459;DHT22;10891;49.350;19.386;2023-02-14T00:22:09;2.60;99.90
21459;DHT22;10891;49.350;19.386;2023-02-14T00:24:36;2.60;99.90
21459;DHT22;10891;49.350;19.386;2023-02-14T00:27:03;2.50;99.90
21459;DHT22;10891;49.350;19.386;2023-02-14T00:29:31;2.50;99.90
21459;DHT22;10891;49.350;19.386;2023-02-14T00:31:59;2.50;99.90
21459;DHT22;10891;49.350;19.386;2023-02-14T00:34:26;2.50;99.90
21459;DHT22;10891;49.350;19.386;2023-02-14T00:36:54;2.40;99.90
21459;DHT22;10891;49.350;19.386;2023-02-14T00:39:21;2.40;99.90
21459;DHT22;10891;49.350;19.386;2023-02-14T00:41:48;2.40;99.90
21459;DHT22;10891;49.350;19.386;2023-02-14T00:44:15;2.50;99.90
21459;DHT22;10891;49.350;19.386;2023-02-14T00:46:42;2.50;99.90
21459;DHT22;10891;49.350;19.386;2023-02-14T00:49:09;2.50;99.90
21459;DHT22;10891;49.350;19.386;2023-02-14T00:51:36;2.40;99.90
21459;DHT22;10891;49.350;19.386;2023-02-14T00:54:04;2.50;99.90
21459;DHT22;10891;49.350;19.386;2023-02-14T00:56:31;2.50;99.90
21459;DHT22;10891;49.350;19.386;2023-02-14T00:58:58;2.50;99.90
21459;DHT22;10891;49.350;19.386;2023-02-14T01:01:25;2.50;99.90
21459;DHT22;10891;49.350;19.386;2023-02-14T01:03:52;2.50;99.90
21459;DHT22;10891;49.350;19.386;2023-02-14T01:06:20;2.50;99.90
21459;DHT22;10891;49.350;19.386;2023-02-14T01:08:47;2.50;99.90
21459;DHT22;10891;49.350;19.386;2023-02-14T01:11:17;2.60;99.90
21459;DHT22;10891;49.350;19.386;2023-02-14T01:13:45;2.50;99.90
21459;DHT22;10891;49.350;19.386;2023-02-14T01:16:15;2.50;99.90
21459;DHT22;10891;49.350;19.386;2023-02-14T01:18:42;2.60;99.90
21459;DHT22;10891;49.350;19.386;2023-02-14T01:21:14;2.60;99.90
21459;DHT22;10891;49.350;19.386;2023-02-14T01:23:42;2.70;99.90
21459;DHT22;10891;49.350;19.386;2023-02-14T01:26:10;2.60;99.90
21459;DHT22;10891;49.350;19.386;2023-02-14T01:28:39;2.60;99.90
21459;DHT22;10891;49.350;19.386;2023-02-14T01:31:08;2.60;99.90
21459;DHT22;10891;49.350;19.386;2023-02-14T01:33:36;2.50;99.90
21459;DHT22;10891;49.350;19.386;2023-02-14T01:36:03;2.50;99.90
21459;DHT22;10891;49.350;19.386;2023-02-14T01:38:30;2.50;99.90
21459;DHT22;10891;49.350;19.386;2023-02-14T01:40:58;2.40;99.90
21459;DHT22;10891;49.350;19.386;2023-02-14T01:43:25;2.30;99.90
21459;DHT22;10891;49.350;19.386;2023-02-14T01:45:53;2.40;99.90
21459;DHT22;10891;49.350;19.386;2023-02-14T01:48:21;2.50;99.90
21459;DHT22;10891;49.350;19.386;2023-02-14T01:50:49;2.50;99.90
21459;DHT22;10891;49.350;19.386;2023-02-14T01:53:20;2.50;99.90
21459;DHT22;10891;49.350;19.386;2023-02-14T01:55:51;2.30;99.90
21459;DHT22;10891;49.350;19.386;2023-02-14T01:58:24;2.10;99.90
21459;DHT22;10891;49.350;19.386;2023-02-14T02:00:52;2.20;99.90
21459;DHT22;10891;49.350;19.386;2023-02-14T02:03:22;2.30;99.90
21459;DHT22;10891;49.350;19.386;2023-02-14T02:05:53;2.40;99.90
21459;DHT22;10891;49.350;19.386;2023-02-14T02:08:21;2.40;99.90
21459;DHT22;10891;49.350;19.386;2023-02-14T02:10:48;2.40;99.90
21459;DHT22;10891;49.350;19.386;2023-02-14T02:13:17;2.40;99.90
21459;DHT22;10891;49.350;19.386;2023-02-14T02:15:55;2.40;99.90
21459;DHT22;10891;49.350;19.386;2023-02-14T02:18:34;2.50;99.90
21459;DHT22;10891;49.350;19.386;2023-02-14T02:24:20;2.40;99.90
21459;DHT22;10891;49.350;19.386;2023-02-14T02:27:13;2.20;99.90
21459;DHT22;10891;49.350;19.386;2023-02-14T02:30:15;2.20;99.90
21459;DHT22;10891;49.350;19.386;2023-02-14T02:36:20;2.20;99.90
21459;DHT22;10891;49.350;19.386;2023-02-14T02:39:01;2.20;99.90
21459;DHT22;10891;49.350;19.386;2023-02-14T02:41:36;2.10;99.90
21459;DHT22;10891;49.350;19.386;2023-02-14T02:44:15;2.20;99.90
21459;DHT22;10891;49.350;19.386;2023-02-14T02:46:48;2.20;99.90
21459;DHT22;10891;49.350;19.386;2023-02-14T02:49:25;2.20;99.90
21459;DHT22;10891;49.350;19.386;2023-02-14T02:52:24;2.30;99.90
21459;DHT22;10891;49.350;19.386;2023-02-14T02:55:14;2.40;99.90
21459;DHT22;10891;49.350;19.386;2023-02-14T02:57:44;2.40;99.90
21459;DHT22;10891;49.350;19.386;2023-02-14T03:00:15;2.30;99.90
21459;DHT22;10891;49.350;19.386;2023-02-14T03:02:46;2.30;99.90
21459;DHT22;10891;49.350;19.386;2023-02-14T03:05:33;2.30;99.90
21459;DHT22;10891;49.350;19.386;2023-02-14T03:08:02;2.40;99.90
21459;DHT22;10891;49.350;19.386;2023-02-14T03:10:32;2.40;99.90
21459;DHT22;10891;49.350;19.386;2023-02-14T03:13:23;2.40;99.90
21459;DHT22;10891;49.350;19.386;2023-02-14T03:15:57;2.60;99.90
21459;DHT22;10891;49.350;19.386;2023-02-14T03:18:42;2.60;99.90
21459;DHT22;10891;49.350;19.386;2023-02-14T03:21:30;2.60;99.90
21459;DHT22;10891;49.350;19.386;2023-02-14T03:24:06;2.60;99.90
21459;DHT22;10891;49.350;19.386;2023-02-14T03:26:38;2.60;99.90
21459;DHT22;10891;49.350;19.386;2023-02-14T03:29:14;2.60;99.90
21459;DHT22;10891;49.350;19.386;2023-02-14T03:31:50;2.70;99.90
21459;DHT22;10891;49.350;19.386;2023-02-14T03:34:25;2.50;99.90
21459;DHT22;10891;49.350;19.386;2023-02-14T03:36:57;2.50;99.90
21459;DHT22;10891;49.350;19.386;2023-02-14T03:39:32;2.60;99.90
21459;DHT22;10891;49.350;19.386;2023-02-14T03:42:02;2.50;99.90
21459;DHT22;10891;49.350;19.386;2023-02-14T03:44:32;2.50;99.90
21459;DHT22;10891;49.350;19.386;2023-02-14T03:47:02;2.40;99.90
21459;DHT22;10891;49.350;19.386;2023-02-14T03:49:33;2.40;99.90
21459;DHT22;10891;49.350;19.386;2023-02-14T03:52:01;2.30;99.90
21459;DHT22;10891;49.350;19.386;2023-02-14T03:54:31;2.30;99.90
21459;DHT22;10891;49.350;19.386;2023-02-14T03:57:03;2.30;99.90
21459;DHT22;10891;49.350;19.386;2023-02-14T03:59:34;2.20;99.90
21459;DHT22;10891;49.350;19.386;2023-02-14T04:02:05;2.30;99.90
21459;DHT22;10891;49.350;19.386;2023-02-14T04:04:37;2.20;99.90
21459;DHT22;10891;49.350;19.386;2023-02-14T04:07:09;2.20;99.90
21459;DHT22;10891;49.350;19.386;2023-02-14T04:09:38;2.10;99.90
21459;DHT22;10891;49.350;19.386;2023-02-14T04:12:05;2.10;99.90
21459;DHT22;10891;49.350;19.386;2023-02-14T04:14:32;2.20;99.90
21459;DHT22;10891;49.350;19.386;2023-02-14T04:16:59;2.10;99.90
21459;DHT22;10891;49.350;19.386;2023-02-14T04:19:43;2.20;99.90
21459;DHT22;10891;49.350;19.386;2023-02-14T04:22:10;2.10;99.90
21459;DHT22;10891;49.350;19.386;2023-02-14T04:24:39;2.20;99.90
21459;DHT22;10891;49.350;19.386;2023-02-14T04:27:06;2.10;99.90
21459;DHT22;10891;49.350;19.386;2023-02-14T04:29:36;2.20;99.90
21459;DHT22;10891;49.350;19.386;2023-02-14T04:32:04;2.30;99.90
21459;DHT22;10891;49.350;19.386;2023-02-14T04:34:31;2.10;99.90
21459;DHT22;10891;49.350;19.386;2023-02-14T04:36:58;2.00;99.90
21459;DHT22;10891;49.350;19.386;2023-02-14T04:39:25;1.90;99.90
21459;DHT22;10891;49.350;19.386;2023-02-14T04:41:53;1.90;99.90
21459;DHT22;10891;49.350;19.386;2023-02-14T04:44:20;2.00;99.90
21459;DHT22;10891;49.350;19.386;2023-02-14T04:46:47;2.00;99.90
21459;DHT22;10891;49.350;19.386;2023-02-14T04:49:14;2.00;99.90
21459;DHT22;10891;49.350;19.386;2023-02-14T04:51:42;2.00;99.90
21459;DHT22;10891;49.350;19.386;2023-02-14T04:54:08;2.10;99.90
21459;DHT22;10891;49.350;19.386;2023-02-14T04:56:35;2.10;99.90
21459;DHT22;10891;49.350;19.386;2023-02-14T04:59:04;2.20;99.90
21459;DHT22;10891;49.350;19.386;2023-02-14T05:01:31;2.20;99.90
21459;DHT22;10891;49.350;19.386;2023-02-14T05:03:58;2.30;99.90
21459;DHT22;10891;49.350;19.386;2023-02-14T05:06:25;2.10;99.90
21459;DHT22;10891;49.350;19.386;2023-02-14T05:08:53;1.90;99.90
21459;DHT22;10891;49.350;19.386;2023-02-14T05:11:20;1.90;99.90
21459;DHT22;10891;49.350;19.386;2023-02-14T05:13:47;2.00;99.90
21459;DHT22;10891;49.350;19.386;2023-02-14T05:16:15;2.00;99.90
21459;DHT22;10891;49.350;19.386;2023-02-14T05:18:42;1.90;99.90
21459;DHT22;10891;49.350;19.386;2023-02-14T05:21:09;1.90;99.90
21459;DHT22;10891;49.350;19.386;2023-02-14T05:23:36;2.00;99.90
21459;DHT22;10891;49.350;19.386;2023-02-14T05:26:04;1.90;99.90
21459;DHT22;10891;49.350;19.386;2023-02-14T05:28:31;1.90;99.90
21459;DHT22;10891;49.350;19.386;2023-02-14T05:30:58;1.90;99.90
21459;DHT22;10891;49.350;19.386;2023-02-14T05:33:26;1.80;99.90
21459;DHT22;10891;49.350;19.386;2023-02-14T05:35:53;1.70;99.90
21459;DHT22;10891;49.350;19.386;2023-02-14T05:38:20;1.70;99.90
21459;DHT22;10891;49.350;19.386;2023-02-14T05:40:47;1.70;99.90
21459;DHT22;10891;49.350;19.386;2023-02-14T05:43:14;1.70;99.90
21459;DHT22;10891;49.350;19.386;2023-02-14T05:45:41;1.60;99.90
21459;DHT22;10891;49.350;19.386;2023-02-14T05:48:08;1.50;99.90
21459;DHT22;10891;49.350;19.386;2023-02-14T05:50:36;1.60;99.90
21459;DHT22;10891;49.350;19.386;2023-02-14T05:53:03;1.60;99.90
21459;DHT22;10891;49.350;19.386;2023-02-14T05:55:30;1.50;99.90
21459;DHT22;10891;49.350;19.386;2023-02-14T05:57:57;1.40;99.90
21459;DHT22;10891;49.350;19.386;2023-02-14T06:00:24;1.40;99.90
21459;DHT22;10891;49.350;19.386;2023-02-14T06:02:51;1.40;99.90
21459;DHT22;10891;49.350;19.386;2023-02-14T06:05:18;1.40;99.90
21459;DHT22;10891;49.350;19.386;2023-02-14T06:07:47;1.50;99.90
21459;DHT22;10891;49.350;19.386;2023-02-14T06:10:16;1.50;99.90
21459;DHT22;10891;49.350;19.386;2023-02-14T06:12:44;1.50;99.90
21459;DHT22;10891;49.350;19.386;2023-02-14T06:15:11;1.50;99.90
21459;DHT22;10891;49.350;19.386;2023-02-14T06:17:38;1.50;99.90
21459;DHT22;10891;49.350;19.386;2023-02-14T06:20:06;1.50;99.90
21459;DHT22;10891;49.350;19.386;2023-02-14T06:22:35;1.50;99.90
21459;DHT22;10891;49.350;19.386;2023-02-14T06:25:04;1.60;99.90
21459;DHT22;10891;49.350;19.386;2023-02-14T06:27:32;1.60;99.90
21459;DHT22;10891;49.350;19.386;2023-02-14T06:29:59;1.60;99.90
21459;DHT22;10891;49.350;19.386;2023-02-14T06:32:26;1.70;99.90
21459;DHT22;10891;49.350;19.386;2023-02-14T06:34:53;1.80;99.90
21459;DHT22;10891;49.350;19.386;2023-02-14T06:37:21;1.80;99.90
21459;DHT22;10891;49.350;19.386;2023-02-14T06:39:48;1.80;99.90
21459;DHT22;10891;49.350;19.386;2023-02-14T06:42:16;1.90;99.90
21459;DHT22;10891;49.350;19.386;2023-02-14T06:44:45;1.80;99.90
21459;DHT22;10891;49.350;19.386;2023-02-14T06:47:12;1.80;99.90
21459;DHT22;10891;49.350;19.386;2023-02-14T06:49:39;1.90;99.90
21459;DHT22;10891;49.350;19.386;2023-02-14T06:52:06;1.80;99.90
21459;DHT22;10891;49.350;19.386;2023-02-14T06:54:33;1.70;99.90
21459;DHT22;10891;49.350;19.386;2023-02-14T06:57:00;1.70;99.90
21459;DHT22;10891;49.350;19.386;2023-02-14T06:59:28;1.80;99.90
21459;DHT22;10891;49.350;19.386;2023-02-14T07:01:55;1.80;99.90
21459;DHT22;10891;49.350;19.386;2023-02-14T07:04:22;1.80;99.90
21459;DHT22;10891;49.350;19.386;2023-02-14T07:06:49;1.80;99.90
21459;DHT22;10891;49.350;19.386;2023-02-14T07:09:16;1.80;99.90
21459;DHT22;10891;49.350;19.386;2023-02-14T07:11:43;1.90;99.90
21459;DHT22;10891;49.350;19.386;2023-02-14T07:14:11;1.90;99.90
21459;DHT22;10891;49.350;19.386;2023-02-14T07:16:39;1.80;99.90
21459;DHT22;10891;49.350;19.386;2023-02-14T07:19:06;1.80;99.90
21459;DHT22;10891;49.350;19.386;2023-02-14T07:21:33;1.80;99.90
21459;DHT22;10891;49.350;19.386;2023-02-14T07:24:00;1.80;99.90
21459;DHT22;10891;49.350;19.386;2023-02-14T07:26:27;1.90;99.90
21459;DHT22;10891;49.350;19.386;2023-02-14T07:28:54;1.80;99.90
21459;DHT22;10891;49.350;19.386;2023-02-14T07:31:21;1.90;99.90
21459;DHT22;10891;49.350;19.386;2023-02-14T07:33:49;1.90;99.90
21459;DHT22;10891;49.350;19.386;2023-02-14T07:36:17;1.80;99.90
21459;DHT22;10891;49.350;19.386;2023-02-14T07:38:44;1.90;99.90
21459;DHT22;10891;49.350;19.386;2023-02-14T07:41:11;2.00;99.90
21459;DHT22;10891;49.350;19.386;2023-02-14T07:43:38;2.10;99.90
21459;DHT22;10891;49.350;19.386;2023-02-14T07:46:06;2.10;99.90
21459;DHT22;10891;49.350;19.386;2023-02-14T07:48:33;2.20;99.90
21459;DHT22;10891;49.350;19.386;2023-02-14T07:51:01;2.20;99.90
21459;DHT22;10891;49.350;19.386;2023-02-14T07:53:28;2.20;99.90
21459;DHT22;10891;49.350;19.386;2023-02-14T07:55:55;2.20;99.90
21459;DHT22;10891;49.350;19.386;2023-02-14T07:58:22;2.40;99.90
21459;DHT22;10891;49.350;19.386;2023-02-14T08:00:49;2.20;99.90
21459;DHT22;10891;49.350;19.386;2023-02-14T08:03:17;2.40;99.90
21459;DHT22;10891;49.350;19.386;2023-02-14T08:05:44;2.50;99.90
21459;DHT22;10891;49.350;19.386;2023-02-14T08:08:23;2.50;99.90
21459;DHT22;10891;49.350;19.386;2023-02-14T08:10:50;2.60;99.90
21459;DHT22;10891;49.350;19.386;2023-02-14T08:13:17;2.80;99.90
21459;DHT22;10891;49.350;19.386;2023-02-14T08:15:43;3.00;99.90
21459;DHT22;10891;49.350;19.386;2023-02-14T08:18:28;3.00;99.90
21459;DHT22;10891;49.350;19.386;2023-02-14T08:20:55;3.40;99.90
21459;DHT22;10891;49.350;19.386;2023-02-14T08:23:23;3.60;99.90
21459;DHT22;10891;49.350;19.386;2023-02-14T08:25:51;3.50;99.90
21459;DHT22;10891;49.350;19.386;2023-02-14T08:28:19;3.90;99.90
21459;DHT22;10891;49.350;19.386;2023-02-14T08:30:46;3.40;99.90
21459;DHT22;10891;49.350;19.386;2023-02-14T08:33:14;3.30;99.90
21459;DHT22;10891;49.350;19.386;2023-02-14T08:35:41;3.40;99.90
21459;DHT22;10891;49.350;19.386;2023-02-14T08:38:08;3.60;99.90
21459;DHT22;10891;49.350;19.386;2023-02-14T08:40:37;4.00;99.90
21459;DHT22;10891;49.350;19.386;2023-02-14T08:43:04;4.00;99.90
21459;DHT22;10891;49.350;19.386;2023-02-14T08:45:32;4.00;99.90
21459;DHT22;10891;49.350;19.386;2023-02-14T08:48:00;4.20;99.90
21459;DHT22;10891;49.350;19.386;2023-02-14T08:50:27;3.90;99.90
21459;DHT22;10891;49.350;19.386;2023-02-14T08:52:54;3.90;99.90
21459;DHT22;10891;49.350;19.386;2023-02-14T08:55:21;3.70;99.90
21459;DHT22;10891;49.350;19.386;2023-02-14T08:57:49;3.70;99.90
21459;DHT22;10891;49.350;19.386;2023-02-14T09:00:17;3.80;99.90
21459;DHT22;10891;49.350;19.386;2023-02-14T09:02:49;3.80;99.90
21459;DHT22;10891;49.350;19.386;2023-02-14T09:05:17;4.10;99.90
21459;DHT22;10891;49.350;19.386;2023-02-14T09:07:44;4.20;99.90
21459;DHT22;10891;49.350;19.386;2023-02-14T09:10:11;4.30;99.90
21459;DHT22;10891;49.350;19.386;2023-02-14T09:12:38;4.50;99.90
21459;DHT22;10891;49.350;19.386;2023-02-14T09:15:08;4.50;99.90
21459;DHT22;10891;49.350;19.386;2023-02-14T09:17:35;4.70;99.90
21459;DHT22;10891;49.350;19.386;2023-02-14T09:20:03;4.60;99.90
21459;DHT22;10891;49.350;19.386;2023-02-14T09:22:32;4.50;99.90
21459;DHT22;10891;49.350;19.386;2023-02-14T09:24:59;4.70;99.90
21459;DHT22;10891;49.350;19.386;2023-02-14T09:27:26;4.60;99.90
21459;DHT22;10891;49.350;19.386;2023-02-14T09:29:53;4.70;99.90
21459;DHT22;10891;49.350;19.386;2023-02-14T09:32:22;4.80;99.90
21459;DHT22;10891;49.350;19.386;2023-02-14T09:34:51;4.70;99.90
21459;DHT22;10891;49.350;19.386;2023-02-14T09:37:18;4.70;99.90
21459;DHT22;10891;49.350;19.386;2023-02-14T09:40:03;4.80;99.90
21459;DHT22;10891;49.350;19.386;2023-02-14T09:42:47;4.70;99.90
21459;DHT22;10891;49.350;19.386;2023-02-14T09:45:19;4.30;99.90
21459;DHT22;10891;49.350;19.386;2023-02-14T09:47:51;4.40;99.90
21459;DHT22;10891;49.350;19.386;2023-02-14T09:50:24;4.40;99.90
21459;DHT22;10891;49.350;19.386;2023-02-14T09:52:56;4.40;99.90
21459;DHT22;10891;49.350;19.386;2023-02-14T09:55:31;4.20;99.90
21459;DHT22;10891;49.350;19.386;2023-02-14T09:58:06;4.20;99.90
21459;DHT22;10891;49.350;19.386;2023-02-14T10:00:39;4.20;99.90
21459;DHT22;10891;49.350;19.386;2023-02-14T10:03:30;4.30;99.90
21459;DHT22;10891;49.350;19.386;2023-02-14T10:06:04;4.30;99.90
21459;DHT22;10891;49.350;19.386;2023-02-14T10:08:44;4.50;99.90
21459;DHT22;10891;49.350;19.386;2023-02-14T10:11:19;4.70;99.90
21459;DHT22;10891;49.350;19.386;2023-02-14T10:13:50;4.50;99.90
21459;DHT22;10891;49.350;19.386;2023-02-14T10:16:22;4.60;99.90
21459;DHT22;10891;49.350;19.386;2023-02-14T10:18:56;4.40;99.90
21459;DHT22;10891;49.350;19.386;2023-02-14T10:21:29;4.20;99.90
21459;DHT22;10891;49.350;19.386;2023-02-14T10:24:01;4.10;99.90
21459;DHT22;10891;49.350;19.386;2023-02-14T10:26:35;4.10;99.90
21459;DHT22;10891;49.350;19.386;2023-02-14T10:29:06;4.20;99.90
21459;DHT22;10891;49.350;19.386;2023-02-14T10:31:40;4.20;99.90
21459;DHT22;10891;49.350;19.386;2023-02-14T10:34:15;4.40;99.90
21459;DHT22;10891;49.350;19.386;2023-02-14T10:39:54;4.80;99.90
21459;DHT22;10891;49.350;19.386;2023-02-14T10:42:28;4.70;99.90
21459;DHT22;10891;49.350;19.386;2023-02-14T10:45:04;4.70;99.90
21459;DHT22;10891;49.350;19.386;2023-02-14T10:47:40;4.50;99.90
21459;DHT22;10891;49.350;19.386;2023-02-14T10:50:18;4.70;99.90
21459;DHT22;10891;49.350;19.386;2023-02-14T10:52:54;4.60;99.90
21459;DHT22;10891;49.350;19.386;2023-02-14T10:55:31;4.80;99.90
21459;DHT22;10891;49.350;19.386;2023-02-14T10:58:03;5.20;99.90
21459;DHT22;10891;49.350;19.386;2023-02-14T11:00:36;5.50;99.90
21459;DHT22;10891;49.350;19.386;2023-02-14T11:03:06;5.20;99.90
21459;DHT22;10891;49.350;19.386;2023-02-14T11:05:38;5.00;99.90
21459;DHT22;10891;49.350;19.386;2023-02-14T11:08:13;5.10;99.90
21459;DHT22;10891;49.350;19.386;2023-02-14T11:10:42;5.50;99.90
21459;DHT22;10891;49.350;19.386;2023-02-14T11:13:33;5.70;99.90
21459;DHT22;10891;49.350;19.386;2023-02-14T11:16:03;5.70;99.90
21459;DHT22;10891;49.350;19.386;2023-02-14T11:18:31;5.60;99.90
21459;DHT22;10891;49.350;19.386;2023-02-14T11:21:13;5.60;99.90
21459;DHT22;10891;49.350;19.386;2023-02-14T11:23:43;5.80;99.90
21459;DHT22;10891;49.350;19.386;2023-02-14T11:26:16;5.70;99.90
21459;DHT22;10891;49.350;19.386;2023-02-14T11:28:50;5.60;99.90
21459;DHT22;10891;49.350;19.386;2023-02-14T11:31:29;5.80;99.90
21459;DHT22;10891;49.350;19.386;2023-02-14T11:33:58;5.90;99.90
21459;DHT22;10891;49.350;19.386;2023-02-14T11:36:28;6.20;99.90
21459;DHT22;10891;49.350;19.386;2023-02-14T11:39:02;6.30;99.90
21459;DHT22;10891;49.350;19.386;2023-02-14T11:41:46;6.30;99.90
21459;DHT22;10891;49.350;19.386;2023-02-14T11:44:15;6.30;99.90
21459;DHT22;10891;49.350;19.386;2023-02-14T11:46:47;6.20;99.90
21459;DHT22;10891;49.350;19.386;2023-02-14T11:49:29;6.00;99.90
21459;DHT22;10891;49.350;19.386;2023-02-14T11:52:00;5.90;99.90
21459;DHT22;10891;49.350;19.386;2023-02-14T11:54:35;6.00;99.90
21459;DHT22;10891;49.350;19.386;2023-02-14T11:57:05;6.10;99.90
21459;DHT22;10891;49.350;19.386;2023-02-14T11:59:37;6.00;99.90
21459;DHT22;10891;49.350;19.386;2023-02-14T12:02:17;6.00;99.90
21459;DHT22;10891;49.350;19.386;2023-02-14T12:04:46;6.20;99.90
21459;DHT22;10891;49.350;19.386;2023-02-14T12:07:24;6.00;99.90
21459;DHT22;10891;49.350;19.386;2023-02-14T12:10:15;5.90;99.90
21459;DHT22;10891;49.350;19.386;2023-02-14T12:12:48;6.20;99.90
21459;DHT22;10891;49.350;19.386;2023-02-14T12:15:31;6.20;99.90
21459;DHT22;10891;49.350;19.386;2023-02-14T12:18:21;6.10;99.90
21459;DHT22;10891;49.350;19.386;2023-02-14T12:20:55;6.10;99.90
21459;DHT22;10891;49.350;19.386;2023-02-14T12:23:31;6.20;99.90
21459;DHT22;10891;49.350;19.386;2023-02-14T12:26:05;6.60;99.90
21459;DHT22;10891;49.350;19.386;2023-02-14T12:28:40;6.60;99.90
21459;DHT22;10891;49.350;19.386;2023-02-14T12:31:10;6.80;99.90
21459;DHT22;10891;49.350;19.386;2023-02-14T12:33:38;6.50;99.90
21459;DHT22;10891;49.350;19.386;2023-02-14T12:36:12;6.00;99.90
21459;DHT22;10891;49.350;19.386;2023-02-14T12:38:53;6.20;99.90
21459;DHT22;10891;49.350;19.386;2023-02-14T12:41:36;6.40;99.90
21459;DHT22;10891;49.350;19.386;2023-02-14T12:44:07;6.00;99.90
21459;DHT22;10891;49.350;19.386;2023-02-14T12:49:48;5.60;99.90
21459;DHT22;10891;49.350;19.386;2023-02-14T12:52:37;5.20;99.90
21459;DHT22;10891;49.350;19.386;2023-02-14T12:55:28;5.00;99.90
21459;DHT22;10891;49.350;19.386;2023-02-14T12:58:08;4.90;99.90
21459;DHT22;10891;49.350;19.386;2023-02-14T13:00:46;4.90;99.90
21459;DHT22;10891;49.350;19.386;2023-02-14T13:03:32;4.90;99.90
21459;DHT22;10891;49.350;19.386;2023-02-14T13:06:08;4.90;99.90
21459;DHT22;10891;49.350;19.386;2023-02-14T13:08:54;4.90;99.90
21459;DHT22;10891;49.350;19.386;2023-02-14T13:11:33;4.90;99.90
21459;DHT22;10891;49.350;19.386;2023-02-14T13:14:12;5.20;99.90
21459;DHT22;10891;49.350;19.386;2023-02-14T13:16:47;5.20;99.90
21459;DHT22;10891;49.350;19.386;2023-02-14T13:19:26;5.20;99.90
21459;DHT22;10891;49.350;19.386;2023-02-14T13:21:56;5.10;99.90
21459;DHT22;10891;49.350;19.386;2023-02-14T13:24:26;5.00;99.90
21459;DHT22;10891;49.350;19.386;2023-02-14T13:26:58;4.90;99.90
21459;DHT22;10891;49.350;19.386;2023-02-14T13:29:27;5.10;99.90
21459;DHT22;10891;49.350;19.386;2023-02-14T13:31:59;4.90;99.90
21459;DHT22;10891;49.350;19.386;2023-02-14T13:34:30;4.90;99.90
21459;DHT22;10891;49.350;19.386;2023-02-14T13:37:00;4.80;99.90
21459;DHT22;10891;49.350;19.386;2023-02-14T13:39:31;4.70;99.90
21459;DHT22;10891;49.350;19.386;2023-02-14T13:42:01;4.70;99.90
21459;DHT22;10891;49.350;19.386;2023-02-14T13:47:18;5.10;99.90
21459;DHT22;10891;49.350;19.386;2023-02-14T13:49:48;5.40;99.90
21459;DHT22;10891;49.350;19.386;2023-02-14T13:52:40;5.20;99.90
21459;DHT22;10891;49.350;19.386;2023-02-14T13:55:12;5.10;99.90
21459;DHT22;10891;49.350;19.386;2023-02-14T13:57:40;5.00;99.90
21459;DHT22;10891;49.350;19.386;2023-02-14T14:03:12;4.70;99.90
21459;DHT22;10891;49.350;19.386;2023-02-14T14:05:48;4.60;99.90
21459;DHT22;10891;49.350;19.386;2023-02-14T14:08:40;4.70;99.90
21459;DHT22;10891;49.350;19.386;2023-02-14T14:11:47;4.70;99.90
21459;DHT22;10891;49.350;19.386;2023-02-14T14:14:03;4.60;99.90
21459;DHT22;10891;49.350;19.386;2023-02-14T14:16:31;4.50;99.90
21459;DHT22;10891;49.350;19.386;2023-02-14T14:19:01;4.50;99.90
21459;DHT22;10891;49.350;19.386;2023-02-14T14:21:30;4.50;99.90
21459;DHT22;10891;49.350;19.386;2023-02-14T14:24:28;4.40;99.90
21459;DHT22;10891;49.350;19.386;2023-02-14T14:26:58;4.50;99.90
21459;DHT22;10891;49.350;19.386;2023-02-14T14:29:29;4.70;99.90
21459;DHT22;10891;49.350;19.386;2023-02-14T14:31:57;4.90;99.90
21459;DHT22;10891;49.350;19.386;2023-02-14T14:34:27;5.00;99.90
21459;DHT22;10891;49.350;19.386;2023-02-14T14:37:00;4.90;99.90
21459;DHT22;10891;49.350;19.386;2023-02-14T14:39:30;4.90;99.90
21459;DHT22;10891;49.350;19.386;2023-02-14T14:42:05;5.20;99.90
21459;DHT22;10891;49.350;19.386;2023-02-14T14:44:35;5.40;99.90
21459;DHT22;10891;49.350;19.386;2023-02-14T14:47:03;5.10;99.90
21459;DHT22;10891;49.350;19.386;2023-02-14T14:49:31;4.90;99.90
21459;DHT22;10891;49.350;19.386;2023-02-14T14:51:58;4.80;99.90
21459;DHT22;10891;49.350;19.386;2023-02-14T14:54:26;4.90;99.90
21459;DHT22;10891;49.350;19.386;2023-02-14T14:56:56;5.00;99.90
21459;DHT22;10891;49.350;19.386;2023-02-14T14:59:28;4.90;99.90
21459;DHT22;10891;49.350;19.386;2023-02-14T15:01:58;4.90;99.90
21459;DHT22;10891;49.350;19.386;2023-02-14T15:04:26;4.70;99.90
21459;DHT22;10891;49.350;19.386;2023-02-14T15:06:55;4.60;99.90
21459;DHT22;10891;49.350;19.386;2023-02-14T15:09:29;4.50;99.90
21459;DHT22;10891;49.350;19.386;2023-02-14T15:11:59;4.10;99.90
21459;DHT22;10891;49.350;19.386;2023-02-14T15:14:47;4.00;99.90
21459;DHT22;10891;49.350;19.386;2023-02-14T15:17:23;4.00;99.90
21459;DHT22;10891;49.350;19.386;2023-02-14T15:19:54;4.10;99.90
21459;DHT22;10891;49.350;19.386;2023-02-14T15:22:24;4.00;99.90
21459;DHT22;10891;49.350;19.386;2023-02-14T15:24:52;4.00;99.90
21459;DHT22;10891;49.350;19.386;2023-02-14T15:27:21;3.80;99.90
21459;DHT22;10891;49.350;19.386;2023-02-14T15:29:54;3.70;99.90
21459;DHT22;10891;49.350;19.386;2023-02-14T15:32:24;3.60;99.90
21459;DHT22;10891;49.350;19.386;2023-02-14T15:34:52;3.50;99.90
21459;DHT22;10891;49.350;19.386;2023-02-14T15:37:21;3.70;99.90
21459;DHT22;10891;49.350;19.386;2023-02-14T15:39:51;3.60;99.90
21459;DHT22;10891;49.350;19.386;2023-02-14T15:42:22;3.60;99.90
21459;DHT22;10891;49.350;19.386;2023-02-14T15:45:14;3.60;99.90
21459;DHT22;10891;49.350;19.386;2023-02-14T15:47:45;3.50;99.90
21459;DHT22;10891;49.350;19.386;2023-02-14T15:50:15;3.50;99.90
21459;DHT22;10891;49.350;19.386;2023-02-14T15:52:43;3.40;99.90
21459;DHT22;10891;49.350;19.386;2023-02-14T15:55:13;3.30;99.90
21459;DHT22;10891;49.350;19.386;2023-02-14T15:57:44;3.10;99.90
21459;DHT22;10891;49.350;19.386;2023-02-14T16:00:16;3.10;99.90
21459;DHT22;10891;49.350;19.386;2023-02-14T16:02:51;3.10;99.90
21459;DHT22;10891;49.350;19.386;2023-02-14T16:05:21;3.00;99.90
21459;DHT22;10891;49.350;19.386;2023-02-14T16:07:56;2.80;99.90
21459;DHT22;10891;49.350;19.386;2023-02-14T16:10:24;2.70;99.90
21459;DHT22;10891;49.350;19.386;2023-02-14T16:12:55;2.80;99.90
21459;DHT22;10891;49.350;19.386;2023-02-14T16:15:24;2.90;99.90